createdAt,value
2023-03-03T00:00:45.022Z,57.44
2023-03-03T00:03:54.930Z,57.57
2023-03-03T00:06:58.917Z,57.67
2023-03-03T00:10:02.687Z,57.63
2023-03-03T00:13:16.308Z,57.72
2023-03-03T00:16:23.296Z,57.80
2023-03-03T00:19:26.928Z,57.92
2023-03-03T00:22:35.841Z,58.04
2023-03-03T00:25:43.309Z,58.00
2023-03-03T00:28:52.074Z,57.95
2023-03-03T00:31:55.871Z,58.00
2023-03-03T00:35:19.569Z,57.72
2023-03-03T00:38:24.223Z,57.71
2023-03-03T00:41:28.460Z,57.65
2023-03-03T00:44:46.546Z,57.61
2023-03-03T00:47:50.557Z,57.54
2023-03-03T00:50:57.198Z,57.46
2023-03-03T00:54:00.891Z,57.39
2023-03-03T00:57:04.171Z,57.39
2023-03-03T01:00:09.184Z,57.57
2023-03-03T01:03:19.401Z,57.65
2023-03-03T01:06:23.101Z,57.69
2023-03-03T01:09:26.449Z,57.76
2023-03-03T01:12:30.936Z,57.76
2023-03-03T01:15:34.467Z,57.57
2023-03-03T01:18:40.308Z,57.61
2023-03-03T01:21:43.657Z,57.59
2023-03-03T01:24:47.095Z,57.61
2023-03-03T01:27:50.451Z,57.74
2023-03-03T01:30:54.404Z,57.60
2023-03-03T01:33:57.807Z,57.63
2023-03-03T01:37:01.171Z,57.54
2023-03-03T01:40:13.581Z,57.58
2023-03-03T01:43:16.715Z,57.60
2023-03-03T01:46:34.663Z,57.67
2023-03-03T01:50:02.905Z,57.64
2023-03-03T01:53:17.493Z,57.69
2023-03-03T01:56:21.420Z,57.61
2023-03-03T01:59:29.771Z,57.60
2023-03-03T02:02:34.585Z,57.50
2023-03-03T02:05:40.098Z,57.50
2023-03-03T02:08:48.820Z,57.62
2023-03-03T02:11:55.262Z,57.34
2023-03-03T02:14:58.634Z,57.51
2023-03-03T02:18:06.087Z,57.33
2023-03-03T02:21:15.556Z,57.40
2023-03-03T02:24:53.790Z,57.57
2023-03-03T02:27:57.726Z,57.40
2023-03-03T02:31:02.402Z,57.45
2023-03-03T02:34:06.639Z,57.59
2023-03-03T02:37:09.959Z,57.64
2023-03-03T02:40:14.695Z,57.59
2023-03-03T02:43:23.641Z,57.52
2023-03-03T02:46:29.421Z,57.57
2023-03-03T02:49:35.552Z,57.44
2023-03-03T02:52:39.616Z,57.54
2023-03-03T02:55:42.874Z,57.45
2023-03-03T02:58:46.114Z,57.38
2023-03-03T03:01:50.235Z,57.20
2023-03-03T03:04:54.964Z,57.12
2023-03-03T03:07:59.551Z,57.38
2023-03-03T03:11:04.174Z,57.41
2023-03-03T03:14:11.775Z,57.43
2023-03-03T03:17:15.219Z,57.39
2023-03-03T03:20:19.356Z,57.60
2023-03-03T03:23:23.009Z,57.66
2023-03-03T03:26:26.374Z,57.67
2023-03-03T03:29:29.754Z,57.52
2023-03-03T03:32:33.020Z,57.65
2023-03-03T03:35:37.095Z,57.80
2023-03-03T03:38:41.211Z,57.82
2023-03-03T03:41:44.988Z,57.75
2023-03-03T03:44:48.306Z,57.70
2023-03-03T03:47:51.510Z,57.81
2023-03-03T03:50:54.860Z,57.74
2023-03-03T03:53:58.402Z,57.64
2023-03-03T03:57:02.083Z,57.28
2023-03-03T04:00:07.049Z,57.27
2023-03-03T04:03:17.092Z,57.22
2023-03-03T04:06:21.275Z,57.35
2023-03-03T04:09:25.168Z,57.49
2023-03-03T04:12:28.522Z,57.33
2023-03-03T04:15:32.023Z,57.77
2023-03-03T04:18:35.915Z,57.75
2023-03-03T04:21:39.619Z,57.91
2023-03-03T04:24:43.614Z,57.99
2023-03-03T04:27:46.909Z,58.06
2023-03-03T04:30:51.408Z,58.31
2023-03-03T04:33:55.038Z,58.46
2023-03-03T04:36:58.548Z,58.82
2023-03-03T04:40:02.191Z,58.78
2023-03-03T04:43:06.317Z,58.83
2023-03-03T04:46:09.653Z,58.64
2023-03-03T04:49:13.459Z,58.82
2023-03-03T04:52:17.244Z,59.04
2023-03-03T04:55:20.713Z,59.21
2023-03-03T04:58:24.389Z,59.23
2023-03-03T05:01:28.020Z,59.45
2023-03-03T05:04:32.435Z,59.29
2023-03-03T05:07:35.779Z,59.44
2023-03-03T05:10:39.775Z,59.61
2023-03-03T05:13:43.180Z,59.71
2023-03-03T05:16:46.449Z,59.79
2023-03-03T05:19:49.650Z,59.81
2023-03-03T05:22:53.085Z,59.87
2023-03-03T05:25:56.231Z,59.86
2023-03-03T05:28:59.418Z,59.94
2023-03-03T05:32:02.581Z,59.97
2023-03-03T05:35:06.487Z,60.18
2023-03-03T05:38:10.039Z,60.13
2023-03-03T05:41:13.444Z,60.35
2023-03-03T05:44:16.705Z,60.21
2023-03-03T05:47:19.964Z,60.25
2023-03-03T05:50:24.322Z,60.58
2023-03-03T05:53:28.484Z,60.49
2023-03-03T05:56:31.676Z,60.73
2023-03-03T05:59:34.860Z,60.79
2023-03-03T06:02:38.098Z,60.89
2023-03-03T06:05:41.373Z,60.99
2023-03-03T06:08:44.765Z,61.07
2023-03-03T06:11:48.032Z,61.22
2023-03-03T06:14:51.335Z,61.23
2023-03-03T06:17:54.778Z,61.43
2023-03-03T06:20:57.971Z,61.60
2023-03-03T06:24:01.177Z,61.66
2023-03-03T06:27:04.478Z,61.52
2023-03-03T06:30:08.301Z,61.77
2023-03-03T06:33:11.944Z,61.76
2023-03-03T06:36:15.461Z,61.94
2023-03-03T06:39:18.741Z,61.96
2023-03-03T06:42:24.030Z,62.13
2023-03-03T06:45:27.477Z,62.04
2023-03-03T06:48:32.134Z,62.15
2023-03-03T06:51:41.120Z,62.36
2023-03-03T06:54:44.906Z,62.49
2023-03-03T06:57:48.288Z,62.49
2023-03-03T07:00:59.510Z,62.73
2023-03-03T07:04:11.690Z,62.70
2023-03-03T07:07:24.872Z,62.82
2023-03-03T07:10:30.966Z,62.82
2023-03-03T07:13:34.533Z,62.91
2023-03-03T07:16:37.910Z,62.90
2023-03-03T07:19:41.519Z,62.92
2023-03-03T07:22:44.809Z,62.95
2023-03-03T07:25:48.670Z,63.13
2023-03-03T07:29:00.381Z,63.30
2023-03-03T07:32:11.234Z,63.29
2023-03-03T07:35:41.698Z,63.21
2023-03-03T07:38:53.557Z,63.23
2023-03-03T07:42:19.973Z,63.17
2023-03-03T07:45:25.537Z,63.35
2023-03-03T07:48:38.923Z,63.38
2023-03-03T07:51:42.377Z,63.57
2023-03-03T07:54:47.396Z,63.56
2023-03-03T07:57:54.775Z,63.61
2023-03-03T08:01:49.880Z,63.76
2023-03-03T08:04:54.900Z,63.70
2023-03-03T08:08:16.202Z,63.82
2023-03-03T08:13:09.281Z,63.86
2023-03-03T08:16:12.563Z,64.04
2023-03-03T08:19:18.237Z,64.01
2023-03-03T08:22:30.390Z,63.96
2023-03-03T08:25:33.787Z,63.98
2023-03-03T08:28:37.104Z,64.12
2023-03-03T08:31:42.097Z,64.07
2023-03-03T08:34:45.709Z,64.32
2023-03-03T08:38:03.650Z,64.52
2023-03-03T08:41:07.197Z,64.58
2023-03-03T08:44:11.331Z,64.64
2023-03-03T08:47:14.666Z,64.87
2023-03-03T08:50:18.656Z,64.95
2023-03-03T08:53:26.122Z,64.99
2023-03-03T08:56:29.721Z,65.02
2023-03-03T08:59:38.118Z,64.94
2023-03-03T09:02:41.942Z,65.82
2023-03-03T09:05:45.848Z,65.73
2023-03-03T09:08:50.421Z,65.23
2023-03-03T09:11:59.773Z,65.12
2023-03-03T09:15:19.078Z,65.13
2023-03-03T09:18:37.332Z,65.19
2023-03-03T09:21:42.376Z,65.30
2023-03-03T09:24:47.713Z,65.29
2023-03-03T09:27:53.813Z,65.30
2023-03-03T09:30:59.807Z,65.34
2023-03-03T09:34:12.711Z,65.25
2023-03-03T09:37:26.735Z,65.31
2023-03-03T09:40:57.620Z,65.39
2023-03-03T09:44:22.054Z,65.36
2023-03-03T09:47:49.930Z,65.32
2023-03-03T09:51:22.525Z,65.57
2023-03-03T09:54:39.845Z,65.74
2023-03-03T09:58:10.851Z,65.70
2023-03-03T10:01:32.689Z,65.69
2023-03-03T10:05:04.211Z,65.56
2023-03-03T10:08:40.743Z,65.48
2023-03-03T10:11:46.762Z,65.50
2023-03-03T10:14:52.979Z,65.64
2023-03-03T10:18:12.315Z,65.77
2023-03-03T10:21:39.730Z,65.78
2023-03-03T10:28:35.133Z,65.97
2023-03-03T10:31:44.674Z,66.03
2023-03-03T10:34:50.982Z,66.02
2023-03-03T10:38:19.617Z,66.06
2023-03-03T10:41:47.937Z,66.21
2023-03-03T10:45:02.327Z,66.16
2023-03-03T10:48:14.940Z,66.24
2023-03-03T10:51:21.015Z,66.22
2023-03-03T10:54:56.173Z,66.23
2023-03-03T10:58:34.163Z,66.28
2023-03-03T11:01:59.877Z,66.20
2023-03-03T11:05:15.638Z,66.31
2023-03-03T11:08:57.633Z,66.34
2023-03-03T11:12:26.975Z,66.36
2023-03-03T11:15:36.471Z,66.32
2023-03-03T11:18:48.446Z,66.29
2023-03-03T11:22:16.240Z,66.27
2023-03-03T11:25:35.717Z,66.24
2023-03-03T11:28:53.689Z,66.23
2023-03-03T11:32:17.599Z,66.12
2023-03-03T11:35:28.033Z,66.07
2023-03-03T11:38:47.577Z,66.04
2023-03-03T11:42:02.311Z,66.07
2023-03-03T11:45:22.785Z,66.05
2023-03-03T11:49:09.776Z,65.95
2023-03-03T11:52:43.683Z,65.90
2023-03-03T11:56:01.645Z,65.90
2023-03-03T11:59:18.556Z,65.69
2023-03-03T12:02:27.981Z,65.66
2023-03-03T12:05:39.984Z,65.43
2023-03-03T12:08:58.399Z,65.43
2023-03-03T12:12:19.023Z,65.54
2023-03-03T12:15:31.254Z,65.55
2023-03-03T12:19:08.664Z,65.24
2023-03-03T12:22:21.895Z,65.09
2023-03-03T12:25:38.459Z,65.13
2023-03-03T12:29:06.700Z,64.96
2023-03-03T12:32:16.032Z,65.08
2023-03-03T12:35:26.288Z,64.90
2023-03-03T12:38:59.368Z,65.07
2023-03-03T12:42:24.874Z,65.05
2023-03-03T12:45:53.616Z,64.95
2023-03-03T12:48:56.935Z,64.86
2023-03-03T12:52:02.972Z,64.80
2023-03-03T12:55:21.445Z,64.75
2023-03-03T12:58:36.507Z,64.55
2023-03-03T13:02:04.052Z,64.56
2023-03-03T13:05:21.732Z,64.48
2023-03-03T13:08:37.104Z,64.38
2023-03-03T13:11:40.312Z,64.39
2023-03-03T13:14:43.502Z,64.35
2023-03-03T13:18:10.504Z,64.32
2023-03-03T13:21:27.113Z,64.28
2023-03-03T13:24:42.706Z,64.16
2023-03-03T13:27:51.477Z,64.05
2023-03-03T13:31:03.114Z,64.15
2023-03-03T13:34:18.350Z,64.02
2023-03-03T13:37:28.232Z,64.09
2023-03-03T13:40:43.580Z,64.02
2023-03-03T13:43:53.607Z,64.12
2023-03-03T13:47:08.571Z,64.08
2023-03-03T13:50:29.157Z,63.91
2023-03-03T13:53:41.673Z,63.94
2023-03-03T13:56:50.772Z,63.84
2023-03-03T14:00:11.490Z,63.92
2023-03-03T14:03:23.983Z,64.06
2023-03-03T14:06:28.515Z,63.92
2023-03-03T14:09:40.209Z,63.87
2023-03-03T14:13:11.575Z,64.12
2023-03-03T14:16:33.470Z,64.14
2023-03-03T14:19:57.735Z,64.08
2023-03-03T14:23:14.745Z,63.83
2023-03-03T14:26:18.088Z,64.08
2023-03-03T14:29:27.686Z,63.95
2023-03-03T14:32:44.710Z,64.23
2023-03-03T14:35:51.357Z,64.21
2023-03-03T14:38:54.879Z,64.26
2023-03-03T14:41:59.469Z,64.45
2023-03-03T14:45:32.614Z,64.28
2023-03-03T14:48:51.442Z,64.38
2023-03-03T14:52:04.445Z,64.36
2023-03-03T14:55:33.319Z,64.44
2023-03-03T14:58:42.507Z,64.37
2023-03-03T15:01:47.303Z,64.34
2023-03-03T15:04:51.152Z,64.28
2023-03-03T15:08:09.014Z,64.51
2023-03-03T15:11:19.558Z,64.51
2023-03-03T15:14:31.604Z,64.58
2023-03-03T15:17:51.013Z,64.64
2023-03-03T15:21:32.340Z,64.73
2023-03-03T15:24:43.723Z,64.59
2023-03-03T15:28:19.723Z,64.62
2023-03-03T15:31:44.562Z,64.66
2023-03-03T15:35:00.242Z,64.53
2023-03-03T15:38:19.100Z,64.57
2023-03-03T15:41:26.887Z,64.61
2023-03-03T15:44:56.426Z,64.40
2023-03-03T15:48:05.321Z,64.49
2023-03-03T15:51:35.895Z,64.57
2023-03-03T15:54:44.367Z,64.59
2023-03-03T15:57:56.840Z,64.59
2023-03-03T16:01:19.452Z,64.50
2023-03-03T16:04:28.370Z,64.79
2023-03-03T16:07:34.184Z,64.80
2023-03-03T16:10:46.503Z,64.89
2023-03-03T16:14:17.283Z,64.78
2023-03-03T16:17:20.417Z,64.89
2023-03-03T16:20:34.778Z,65.02
2023-03-03T16:23:50.799Z,65.13
2023-03-03T16:27:24.811Z,65.07
2023-03-03T16:30:38.147Z,65.13
2023-03-03T16:33:50.596Z,65.30
2023-03-03T16:37:08.891Z,65.29
2023-03-03T16:40:26.909Z,65.49
2023-03-03T16:43:45.147Z,65.44
2023-03-03T16:46:49.990Z,65.47
2023-03-03T16:50:23.047Z,65.54
2023-03-03T16:53:44.256Z,65.42
2023-03-03T16:57:10.733Z,65.44
2023-03-03T17:00:40.759Z,65.43
2023-03-03T17:03:46.591Z,65.30
2023-03-03T17:06:58.025Z,65.50
2023-03-03T17:10:38.795Z,65.56
2023-03-03T17:14:12.875Z,65.35
2023-03-03T17:17:28.239Z,65.43
2023-03-03T17:20:50.519Z,65.56
2023-03-03T17:24:19.922Z,65.49
2023-03-03T17:27:46.433Z,65.55
2023-03-03T17:31:08.716Z,65.66
2023-03-03T17:34:41.522Z,65.63
2023-03-03T17:37:47.783Z,65.70
2023-03-03T17:41:14.890Z,65.87
2023-03-03T17:44:21.094Z,66.05
2023-03-03T17:47:47.131Z,65.95
2023-03-03T17:51:13.543Z,65.96
2023-03-03T17:54:49.140Z,65.93
2023-03-03T17:58:11.758Z,65.78
2023-03-03T18:01:36.293Z,66.07
2023-03-03T18:05:02.347Z,65.94
2023-03-03T18:08:24.195Z,65.89
2023-03-03T18:11:58.292Z,65.83
2023-03-03T18:15:01.479Z,65.84
2023-03-03T18:18:15.445Z,66.05
2023-03-03T18:21:26.983Z,66.04
2023-03-03T18:24:54.750Z,66.11
2023-03-03T18:28:00.402Z,66.25
2023-03-03T18:31:05.037Z,66.22
2023-03-03T18:34:10.047Z,66.30
2023-03-03T18:37:31.710Z,66.23
2023-03-03T18:40:35.608Z,66.21
2023-03-03T18:43:41.763Z,66.27
2023-03-03T18:46:47.631Z,66.27
2023-03-03T18:50:13.228Z,66.50
2023-03-03T18:53:29.019Z,66.46
2023-03-03T18:56:47.015Z,66.67
2023-03-03T18:59:56.378Z,66.38
2023-03-03T19:03:00.418Z,66.37
2023-03-03T19:06:10.293Z,66.35
2023-03-03T19:09:20.276Z,66.32
2023-03-03T19:12:48.602Z,66.47
2023-03-03T19:15:55.959Z,66.46
2023-03-03T19:19:02.357Z,66.52
2023-03-03T19:22:27.996Z,66.51
2023-03-03T19:25:34.494Z,66.51
2023-03-03T19:28:44.866Z,66.51
2023-03-03T19:32:26.529Z,66.58
2023-03-03T19:35:38.948Z,66.52
2023-03-03T19:38:42.108Z,66.54
2023-03-03T19:41:57.503Z,66.59
2023-03-03T19:45:22.260Z,66.62
2023-03-03T19:48:28.273Z,66.70
2023-03-03T19:51:55.597Z,66.71
2023-03-03T19:55:17.220Z,66.78
2023-03-03T19:58:35.128Z,66.84
2023-03-03T20:02:16.691Z,66.84
2023-03-03T20:05:31.128Z,66.75
2023-03-03T20:08:44.011Z,66.78
2023-03-03T20:12:26.062Z,66.76
2023-03-03T20:15:47.583Z,66.81
2023-03-03T20:19:10.427Z,66.87
2023-03-03T20:22:19.440Z,66.80
2023-03-03T20:25:43.413Z,66.81
2023-03-03T20:29:02.025Z,66.75
2023-03-03T20:32:30.713Z,66.90
2023-03-03T20:36:04.917Z,66.88
2023-03-03T20:39:13.825Z,66.79
2023-03-03T20:42:38.132Z,66.88
2023-03-03T20:46:08.380Z,66.84
2023-03-03T20:49:21.787Z,66.99
2023-03-03T20:53:02.629Z,67.08
2023-03-03T20:56:16.918Z,67.08
2023-03-03T20:59:38.887Z,67.00
2023-03-03T21:03:19.051Z,67.00
2023-03-03T21:06:38.293Z,67.07
2023-03-03T21:09:41.757Z,67.17
2023-03-03T21:12:45.250Z,67.06
2023-03-03T21:15:59.929Z,66.84
2023-03-03T21:19:10.141Z,66.68
2023-03-03T21:22:13.514Z,66.78
2023-03-03T21:25:40.161Z,66.80
2023-03-03T21:29:03.225Z,66.73
2023-03-03T21:32:09.251Z,66.85
2023-03-03T21:35:19.014Z,67.00
2023-03-03T21:38:36.746Z,67.01
2023-03-03T21:41:56.562Z,67.12
2023-03-03T21:45:13.409Z,67.08
2023-03-03T21:48:16.689Z,67.19
2023-03-03T21:51:21.475Z,67.14
2023-03-03T21:54:25.394Z,67.12
2023-03-03T21:57:28.747Z,66.96
2023-03-03T22:00:32.043Z,66.95
2023-03-03T22:03:36.186Z,67.05
2023-03-03T22:06:39.937Z,67.03
2023-03-03T22:09:43.294Z,67.03
2023-03-03T22:12:47.257Z,67.13
2023-03-03T22:15:50.940Z,67.03
2023-03-03T22:18:54.262Z,67.10
2023-03-03T22:21:57.719Z,67.09
2023-03-03T22:25:01.137Z,67.01
2023-03-03T22:28:04.591Z,66.91
2023-03-03T22:31:08.008Z,66.90
2023-03-03T22:34:11.827Z,66.74
2023-03-03T22:37:15.193Z,66.70
2023-03-03T22:40:18.733Z,66.57
2023-03-03T22:43:22.106Z,66.73
2023-03-03T22:46:25.686Z,66.85
2023-03-03T22:49:29.411Z,66.69
2023-03-03T22:52:32.818Z,66.84
2023-03-03T22:55:37.248Z,66.92
2023-03-03T22:58:40.523Z,66.87
2023-03-03T23:01:43.804Z,66.86
2023-03-03T23:04:47.211Z,67.00
2023-03-03T23:07:50.807Z,67.28
2023-03-03T23:10:54.077Z,67.21
2023-03-03T23:13:57.320Z,67.25
2023-03-03T23:17:00.843Z,67.49
2023-03-03T23:20:04.397Z,67.24
2023-03-03T23:23:07.676Z,67.33
2023-03-03T23:26:10.903Z,67.38
2023-03-03T23:29:14.112Z,67.44
2023-03-03T23:32:17.307Z,67.36
2023-03-03T23:35:21.007Z,67.30
2023-03-03T23:38:24.251Z,67.24
2023-03-03T23:41:27.508Z,67.28
2023-03-03T23:44:30.770Z,67.25
2023-03-03T23:47:34.187Z,67.34
2023-03-03T23:50:38.152Z,67.38
2023-03-03T23:53:41.355Z,67.61
2023-03-03T23:56:44.496Z,67.47
2023-03-03T23:59:47.831Z,67.45
